Time;durP1;ratioP1;P1;durP2;ratioP2;P2;SDS_P1;SDS_P2;PMS_P1;PMS_P2;Temp;Humidity;BMP_temperature;BMP_pressure;BME280_temperature;BME280_humidity;BME280_pressure;Samples;Min_cycle;Max_cycle;Signal;HPM_P1;HPM_P2
2021/07/31 00:01:20;;;;;;;1.00;1.00;;;;;;;;;;4937889;29;20324;-83
2021/07/31 00:03:47;;;;;;;0.70;0.70;;;;;;;;;;4938677;29;20210;-83
2021/07/31 00:06:15;;;;;;;0.80;0.80;;;;;;;;;;4938290;29;20288;-83
2021/07/31 00:08:44;;;;;;;1.40;1.08;;;;;;;;;;4938622;29;20201;-83
2021/07/31 00:11:12;;;;;;;1.00;1.00;;;;;;;;;;4938725;29;20221;-83
2021/07/31 00:13:41;;;;;;;0.77;0.77;;;;;;;;;;4939983;29;20246;-83
2021/07/31 00:16:08;;;;;;;0.60;0.60;;;;;;;;;;4940238;29;20545;-83
2021/07/31 00:18:36;;;;;;;0.52;0.50;;;;;;;;;;4940385;29;20202;-83
2021/07/31 00:21:03;;;;;;;0.60;0.60;;;;;;;;;;4940656;29;20240;-82
2021/07/31 00:23:30;;;;;;;0.60;0.60;;;;;;;;;;4940868;29;20212;-82
2021/07/31 00:25:59;;;;;;;0.68;0.52;;;;;;;;;;4941215;29;20210;-83
2021/07/31 00:28:27;;;;;;;0.50;0.50;;;;;;;;;;4939582;29;20209;-82
2021/07/31 00:30:54;;;;;;;0.52;0.52;;;;;;;;;;4940902;29;20202;-83
2021/07/31 00:33:22;;;;;;;1.10;1.00;;;;;;;;;;4940662;29;20672;-83
2021/07/31 00:35:49;;;;;;;1.23;0.77;;;;;;;;;;4940489;29;20206;-83
2021/07/31 00:38:16;;;;;;;0.80;0.80;;;;;;;;;;4941221;29;20205;-82
2021/07/31 00:40:44;;;;;;;0.57;0.57;;;;;;;;;;4940622;29;20610;-82
2021/07/31 00:43:13;;;;;;;0.70;0.70;;;;;;;;;;4940896;29;20696;-82
2021/07/31 00:45:40;;;;;;;0.50;0.50;;;;;;;;;;4941650;29;20190;-82
2021/07/31 00:48:08;;;;;;;1.15;0.63;;;;;;;;;;4940908;29;20209;-82
2021/07/31 00:50:36;;;;;;;0.80;0.80;;;;;;;;;;4941012;29;20205;-82
2021/07/31 00:53:03;;;;;;;0.47;0.47;;;;;;;;;;4940943;29;20230;-81
2021/07/31 00:55:31;;;;;;;0.60;0.60;;;;;;;;;;4942229;29;20206;-82
2021/07/31 00:57:59;;;;;;;0.77;0.77;;;;;;;;;;4942421;29;20565;-82
2021/07/31 01:00:28;;;;;;;0.60;0.60;;;;;;;;;;4941780;29;20601;-82
2021/07/31 01:02:55;;;;;;;0.63;0.63;;;;;;;;;;4941931;29;20244;-82
2021/07/31 01:05:23;;;;;;;0.70;0.70;;;;;;;;;;4942687;29;20611;-82
2021/07/31 01:07:52;;;;;;;0.93;0.68;;;;;;;;;;4943007;29;20193;-82
2021/07/31 01:10:20;;;;;;;1.08;0.60;;;;;;;;;;4943192;29;20182;-82
2021/07/31 01:12:49;;;;;;;0.60;0.60;;;;;;;;;;4943429;29;20234;-82
2021/07/31 01:15:17;;;;;;;0.57;0.57;;;;;;;;;;4944337;29;20208;-82
2021/07/31 01:17:46;;;;;;;0.60;0.60;;;;;;;;;;4944215;29;20209;-82
2021/07/31 01:20:14;;;;;;;0.70;0.70;;;;;;;;;;4944811;29;20194;-82
2021/07/31 01:22:42;;;;;;;0.60;0.60;;;;;;;;;;4945388;29;20221;-83
2021/07/31 01:25:10;;;;;;;1.27;0.60;;;;;;;;;;4945413;29;20186;-83
2021/07/31 01:27:40;;;;;;;0.50;0.50;;;;;;;;;;4948805;29;20212;-83
2021/07/31 01:30:09;;;;;;;0.43;0.43;;;;;;;;;;4948771;29;20208;-83
2021/07/31 01:32:36;;;;;;;0.57;0.52;;;;;;;;;;4950004;29;20234;-83
2021/07/31 01:35:05;;;;;;;0.60;0.60;;;;;;;;;;4961417;29;20434;-82
2021/07/31 01:37:32;;;;;;;0.55;0.55;;;;;;;;;;4957489;28;20205;-82
2021/07/31 01:40:01;;;;;;;0.75;0.75;;;;;;;;;;4941424;29;20652;-83
2021/07/31 01:42:29;;;;;;;0.70;0.70;;;;;;;;;;4940583;29;20407;-83
2021/07/31 01:44:56;;;;;;;0.60;0.60;;;;;;;;;;4941155;29;20201;-82
2021/07/31 01:47:23;;;;;;;0.93;0.93;;;;;;;;;;4941431;29;20210;-83
2021/07/31 01:49:51;;;;;;;0.52;0.52;;;;;;;;;;4940306;29;20210;-83
2021/07/31 01:52:18;;;;;;;0.30;0.30;;;;;;;;;;4943116;29;20222;-81
2021/07/31 01:54:46;;;;;;;0.43;0.43;;;;;;;;;;4941842;29;20710;-83
2021/07/31 01:57:15;;;;;;;0.50;0.50;;;;;;;;;;4940194;29;20698;-82
2021/07/31 01:59:42;;;;;;;0.88;0.70;;;;;;;;;;4940694;29;20190;-83
2021/07/31 02:02:09;;;;;;;0.63;0.63;;;;;;;;;;4940208;29;20234;-84
2021/07/31 02:04:37;;;;;;;0.60;0.60;;;;;;;;;;4940583;29;20216;-82
2021/07/31 02:07:05;;;;;;;0.77;0.77;;;;;;;;;;4940199;29;20221;-82
2021/07/31 02:09:32;;;;;;;0.93;0.77;;;;;;;;;;4940489;29;20545;-82
2021/07/31 02:11:59;;;;;;;0.95;0.80;;;;;;;;;;4940062;29;20222;-83
2021/07/31 02:14:29;;;;;;;1.00;0.77;;;;;;;;;;4940780;29;20206;-83
2021/07/31 02:16:56;;;;;;;0.93;0.90;;;;;;;;;;4941904;29;20212;-83
2021/07/31 02:19:24;;;;;;;0.80;0.80;;;;;;;;;;4941403;29;20661;-82
2021/07/31 02:21:51;;;;;;;0.60;0.60;;;;;;;;;;4941088;29;20256;-83
2021/07/31 02:24:39;;;;;;;1.13;0.73;;;;;;;;;;4942167;29;20281;-83
2021/07/31 02:27:07;;;;;;;0.63;0.63;;;;;;;;;;4922362;29;20205;-83
2021/07/31 02:29:36;;;;;;;0.75;0.75;;;;;;;;;;4939878;29;20206;-83
2021/07/31 02:32:04;;;;;;;0.73;0.73;;;;;;;;;;4939693;29;20226;-82
2021/07/31 02:34:31;;;;;;;0.50;0.50;;;;;;;;;;4939067;29;20210;-82
2021/07/31 02:36:58;;;;;;;0.90;0.90;;;;;;;;;;4940105;29;20194;-83
2021/07/31 02:39:26;;;;;;;0.95;0.70;;;;;;;;;;4939569;29;20190;-83
2021/07/31 02:41:53;;;;;;;0.50;0.50;;;;;;;;;;4940564;29;20236;-82
2021/07/31 02:44:20;;;;;;;0.60;0.60;;;;;;;;;;4939734;29;20189;-83
2021/07/31 02:46:49;;;;;;;0.45;0.45;;;;;;;;;;4939092;29;20193;-83
2021/07/31 02:49:17;;;;;;;0.90;0.52;;;;;;;;;;4941431;29;20220;-82
2021/07/31 02:51:44;;;;;;;0.60;0.60;;;;;;;;;;4942866;29;20240;-82
2021/07/31 02:54:11;;;;;;;1.38;0.60;;;;;;;;;;4943981;29;20213;-83
2021/07/31 02:56:39;;;;;;;0.63;0.63;;;;;;;;;;4943862;29;20186;-83
2021/07/31 02:59:06;;;;;;;0.50;0.50;;;;;;;;;;4943017;29;20194;-82
2021/07/31 03:01:34;;;;;;;0.60;0.60;;;;;;;;;;4942595;29;20234;-83
2021/07/31 03:04:03;;;;;;;0.55;0.55;;;;;;;;;;4943426;29;20252;-83
2021/07/31 03:06:31;;;;;;;0.47;0.47;;;;;;;;;;4943602;29;20187;-82
2021/07/31 03:08:58;;;;;;;0.63;0.63;;;;;;;;;;4943871;29;20556;-84
2021/07/31 03:11:26;;;;;;;0.60;0.60;;;;;;;;;;4944202;29;20229;-84
2021/07/31 03:13:53;;;;;;;0.65;0.47;;;;;;;;;;4943818;29;20216;-84
2021/07/31 03:16:20;;;;;;;0.65;0.65;;;;;;;;;;4948523;29;20202;-84
2021/07/31 03:18:48;;;;;;;0.55;0.55;;;;;;;;;;4948802;29;20213;-83
2021/07/31 03:21:17;;;;;;;0.60;0.60;;;;;;;;;;4948239;29;20230;-83
2021/07/31 03:23:44;;;;;;;0.98;0.60;;;;;;;;;;4946223;29;20213;-84
2021/07/31 03:26:12;;;;;;;0.50;0.50;;;;;;;;;;4945347;29;20656;-84
2021/07/31 03:28:39;;;;;;;0.63;0.60;;;;;;;;;;4946511;29;20210;-84
2021/07/31 03:31:06;;;;;;;0.40;0.40;;;;;;;;;;4948627;29;20190;-83
2021/07/31 03:33:34;;;;;;;0.40;0.40;;;;;;;;;;4949527;29;20212;-83
2021/07/31 03:36:01;;;;;;;0.63;0.63;;;;;;;;;;4949348;29;20272;-83
2021/07/31 03:38:30;;;;;;;0.60;0.60;;;;;;;;;;4949369;29;20186;-84
2021/07/31 03:40:58;;;;;;;0.80;0.52;;;;;;;;;;4949484;29;20205;-83
2021/07/31 03:43:25;;;;;;;1.35;0.57;;;;;;;;;;4947772;29;20222;-82
2021/07/31 03:45:53;;;;;;;0.80;0.80;;;;;;;;;;4948971;29;20289;-81
2021/07/31 03:48:20;;;;;;;0.50;0.50;;;;;;;;;;4948956;29;20206;-83
2021/07/31 03:50:47;;;;;;;0.75;0.60;;;;;;;;;;4948252;29;20191;-83
2021/07/31 03:53:15;;;;;;;0.60;0.60;;;;;;;;;;4945964;29;20198;-84
2021/07/31 03:55:48;;;;;;;1.15;0.88;;;;;;;;;;4943763;29;20277;-84
2021/07/31 03:58:15;;;;;;;0.70;0.70;;;;;;;;;;4944075;29;20611;-84
2021/07/31 04:00:44;;;;;;;0.50;0.50;;;;;;;;;;4945342;29;20284;-84
2021/07/31 04:03:11;;;;;;;0.60;0.60;;;;;;;;;;4943606;29;20248;-83
2021/07/31 04:05:39;;;;;;;1.38;1.35;;;;;;;;;;4943292;29;20207;-84
2021/07/31 04:08:07;;;;;;;0.60;0.60;;;;;;;;;;4944292;29;20224;-84
2021/07/31 04:10:35;;;;;;;0.93;0.93;;;;;;;;;;4943685;29;20556;-84
2021/07/31 04:13:04;;;;;;;1.25;1.13;;;;;;;;;;4944008;29;20221;-83
2021/07/31 04:15:31;;;;;;;0.80;0.65;;;;;;;;;;4944193;29;20641;-84
2021/07/31 04:17:59;;;;;;;0.80;0.80;;;;;;;;;;4945257;29;20216;-84
2021/07/31 04:20:26;;;;;;;1.00;0.80;;;;;;;;;;4944900;29;20269;-81
2021/07/31 04:22:54;;;;;;;0.50;0.50;;;;;;;;;;4944880;29;20229;-84
2021/07/31 04:25:21;;;;;;;0.70;0.70;;;;;;;;;;4944073;29;20210;-84
2021/07/31 04:27:49;;;;;;;1.40;0.88;;;;;;;;;;4944326;29;20209;-85
2021/07/31 04:30:17;;;;;;;0.90;0.90;;;;;;;;;;4944786;29;20230;-84
2021/07/31 04:32:45;;;;;;;0.80;0.80;;;;;;;;;;4944984;29;20225;-84
2021/07/31 04:35:13;;;;;;;0.93;0.73;;;;;;;;;;4944382;29;20216;-85
2021/07/31 04:37:40;;;;;;;1.15;0.80;;;;;;;;;;4943133;29;20186;-84
2021/07/31 04:40:09;;;;;;;0.88;0.70;;;;;;;;;;4943396;29;20213;-84
2021/07/31 04:42:37;;;;;;;1.30;0.90;;;;;;;;;;4947250;29;20249;-83
2021/07/31 04:45:05;;;;;;;0.75;0.65;;;;;;;;;;4956698;29;20205;-83
2021/07/31 04:47:39;;;;;;;0.47;0.47;;;;;;;;;;4949433;29;20208;-83
2021/07/31 04:50:07;;;;;;;0.73;0.73;;;;;;;;;;4939165;29;20277;-84
2021/07/31 04:52:36;;;;;;;0.65;0.60;;;;;;;;;;4939871;29;20584;-81
2021/07/31 04:55:04;;;;;;;0.93;0.93;;;;;;;;;;4940132;29;20189;-83
2021/07/31 04:57:31;;;;;;;0.82;0.82;;;;;;;;;;4937693;29;20209;-83
2021/07/31 04:59:59;;;;;;;1.15;0.95;;;;;;;;;;4938113;29;20197;-83
2021/07/31 05:02:26;;;;;;;0.80;0.80;;;;;;;;;;4940796;29;20256;-83
2021/07/31 05:04:55;;;;;;;1.83;1.00;;;;;;;;;;4978218;23;20243;-84
2021/07/31 05:07:22;;;;;;;1.02;0.90;;;;;;;;;;4975407;28;20199;-84
2021/07/31 05:09:50;;;;;;;1.20;1.02;;;;;;;;;;4975156;28;20215;-84
2021/07/31 05:12:17;;;;;;;1.15;1.10;;;;;;;;;;4975233;28;20210;-85
2021/07/31 05:14:45;;;;;;;2.35;1.20;;;;;;;;;;4974987;28;20255;-85
2021/07/31 05:17:12;;;;;;;1.00;0.98;;;;;;;;;;4975486;28;20222;-86
2021/07/31 05:19:39;;;;;;;2.03;0.98;;;;;;;;;;4975743;28;20184;-85
2021/07/31 05:22:08;;;;;;;1.17;0.90;;;;;;;;;;4975538;28;20185;-86
2021/07/31 05:24:37;;;;;;;3.90;1.00;;;;;;;;;;4976591;28;20236;-86
2021/07/31 05:27:05;;;;;;;0.80;0.80;;;;;;;;;;4976702;28;20207;-87
2021/07/31 05:29:33;;;;;;;1.27;0.88;;;;;;;;;;4976403;28;20185;-87
2021/07/31 05:32:01;;;;;;;1.00;0.90;;;;;;;;;;4976226;28;20196;-85
2021/07/31 05:34:31;;;;;;;0.70;0.70;;;;;;;;;;4976999;28;20767;-86
2021/07/31 05:36:58;;;;;;;1.20;0.73;;;;;;;;;;4977233;28;20192;-86
2021/07/31 05:39:27;;;;;;;1.65;0.90;;;;;;;;;;4977150;28;20216;-84
2021/07/31 05:41:54;;;;;;;1.40;0.98;;;;;;;;;;4977453;28;20196;-82
2021/07/31 05:44:22;;;;;;;1.40;0.98;;;;;;;;;;4976345;28;20251;-83
2021/07/31 05:46:50;;;;;;;0.77;0.77;;;;;;;;;;4974612;28;20200;-84
2021/07/31 05:49:17;;;;;;;1.08;1.08;;;;;;;;;;4974328;28;20565;-87
2021/07/31 05:51:44;;;;;;;1.25;0.90;;;;;;;;;;4975768;28;20192;-88
2021/07/31 05:54:12;;;;;;;0.70;0.70;;;;;;;;;;4973532;28;20232;-83
2021/07/31 05:56:43;;;;;;;0.70;0.70;;;;;;;;;;4977044;28;20188;-82
2021/07/31 05:59:10;;;;;;;0.63;0.63;;;;;;;;;;4976771;28;20197;-84
2021/07/31 06:01:38;;;;;;;2.15;1.67;;;;;;;;;;4976634;28;20185;-84
2021/07/31 06:04:05;;;;;;;0.70;0.70;;;;;;;;;;4975904;28;20234;-84
2021/07/31 06:06:33;;;;;;;1.10;1.00;;;;;;;;;;4976033;28;21002;-86
2021/07/31 06:09:01;;;;;;;2.20;0.88;;;;;;;;;;4976378;28;20239;-84
2021/07/31 06:11:31;;;;;;;4.25;1.45;;;;;;;;;;4975901;28;20200;-86
2021/07/31 06:14:00;;;;;;;1.67;0.80;;;;;;;;;;4976313;28;20228;-84
2021/07/31 06:16:28;;;;;;;0.80;0.70;;;;;;;;;;4975599;28;20208;-84
2021/07/31 06:18:58;;;;;;;2.25;0.90;;;;;;;;;;4976021;28;20200;-84
2021/07/31 06:21:26;;;;;;;1.13;0.82;;;;;;;;;;4976025;28;20189;-84
2021/07/31 06:23:54;;;;;;;0.70;0.70;;;;;;;;;;4975535;28;20690;-84
2021/07/31 06:26:23;;;;;;;0.85;0.85;;;;;;;;;;4975664;28;20705;-84
2021/07/31 06:28:50;;;;;;;0.80;0.80;;;;;;;;;;4976017;28;20189;-83
2021/07/31 06:31:19;;;;;;;1.67;1.00;;;;;;;;;;4975070;28;20640;-84
2021/07/31 06:33:47;;;;;;;0.73;0.73;;;;;;;;;;4975123;28;20236;-83
2021/07/31 06:36:19;;;;;;;0.90;0.90;;;;;;;;;;4975035;28;20228;-84
2021/07/31 06:38:48;;;;;;;1.33;1.10;;;;;;;;;;4975304;28;20188;-85
2021/07/31 06:41:15;;;;;;;1.13;1.08;;;;;;;;;;4974862;28;20188;-84
2021/07/31 06:43:43;;;;;;;0.65;0.65;;;;;;;;;;4974918;28;20255;-84
2021/07/31 06:46:11;;;;;;;1.05;0.77;;;;;;;;;;4974501;28;20648;-83
2021/07/31 06:48:42;;;;;;;1.10;0.98;;;;;;;;;;4974435;28;20408;-82
2021/07/31 06:51:10;;;;;;;0.93;0.85;;;;;;;;;;4974597;28;20212;-83
2021/07/31 06:53:38;;;;;;;2.78;1.08;;;;;;;;;;4974270;28;20221;-83
2021/07/31 06:56:05;;;;;;;1.80;0.90;;;;;;;;;;4975014;28;20210;-83
2021/07/31 06:58:35;;;;;;;1.13;1.00;;;;;;;;;;4975985;28;20193;-83
2021/07/31 07:01:02;;;;;;;1.00;0.93;;;;;;;;;;4976177;28;20199;-83
2021/07/31 07:03:30;;;;;;;4.55;1.10;;;;;;;;;;4976735;28;20223;-83
2021/07/31 07:06:02;;;;;;;1.17;1.08;;;;;;;;;;4995018;28;20195;-83
2021/07/31 07:08:30;;;;;;;1.13;1.00;;;;;;;;;;4994883;28;20187;-83
2021/07/31 07:10:57;;;;;;;0.80;0.80;;;;;;;;;;4995106;28;20209;-84
2021/07/31 07:13:25;;;;;;;1.67;0.80;;;;;;;;;;4986716;28;20198;-83
2021/07/31 07:15:52;;;;;;;0.80;0.80;;;;;;;;;;4974944;28;20208;-83
2021/07/31 07:18:20;;;;;;;0.95;0.93;;;;;;;;;;4975378;28;20570;-84
2021/07/31 07:20:48;;;;;;;1.60;1.50;;;;;;;;;;4974790;28;20839;-83
2021/07/31 07:23:17;;;;;;;0.98;0.90;;;;;;;;;;4979342;28;20283;-84
2021/07/31 07:25:45;;;;;;;0.80;0.80;;;;;;;;;;4994377;28;20224;-81
2021/07/31 07:28:13;;;;;;;0.80;0.73;;;;;;;;;;4994948;28;20192;-83
2021/07/31 07:30:40;;;;;;;1.17;1.08;;;;;;;;;;4981785;28;20207;-82
2021/07/31 07:33:08;;;;;;;1.38;1.08;;;;;;;;;;4973490;28;20208;-82
2021/07/31 07:35:35;;;;;;;1.08;1.08;;;;;;;;;;4975407;28;20192;-82
2021/07/31 07:38:03;;;;;;;0.77;0.77;;;;;;;;;;4974877;28;20232;-83
2021/07/31 07:40:32;;;;;;;0.70;0.70;;;;;;;;;;4974687;28;20196;-82
2021/07/31 07:43:01;;;;;;;0.60;0.60;;;;;;;;;;4979037;28;20204;-82
2021/07/31 07:45:28;;;;;;;0.93;0.93;;;;;;;;;;4993506;28;20234;-81
2021/07/31 07:47:57;;;;;;;1.55;0.82;;;;;;;;;;4993299;28;20204;-82
2021/07/31 07:50:25;;;;;;;0.82;0.82;;;;;;;;;;4993842;28;20242;-83
2021/07/31 07:52:52;;;;;;;0.85;0.85;;;;;;;;;;4988690;28;20204;-82
2021/07/31 07:55:19;;;;;;;0.77;0.70;;;;;;;;;;4974383;28;20231;-83
2021/07/31 07:57:48;;;;;;;0.85;0.85;;;;;;;;;;4974034;28;20584;-83
2021/07/31 08:00:17;;;;;;;3.15;1.05;;;;;;;;;;4974537;28;20204;-83
2021/07/31 08:02:44;;;;;;;0.77;0.75;;;;;;;;;;4977299;28;20203;-83
2021/07/31 08:05:13;;;;;;;0.70;0.70;;;;;;;;;;4993358;28;20236;-83
2021/07/31 08:07:43;;;;;;;1.23;1.13;;;;;;;;;;4993969;28;20188;-83
2021/07/31 08:10:12;;;;;;;0.70;0.70;;;;;;;;;;4993772;28;20198;-84
2021/07/31 08:12:39;;;;;;;1.25;1.13;;;;;;;;;;4990440;28;20204;-84
2021/07/31 08:15:09;;;;;;;0.93;0.93;;;;;;;;;;4974091;28;20444;-84
2021/07/31 08:17:37;;;;;;;0.77;0.77;;;;;;;;;;4974794;28;20185;-84
2021/07/31 08:20:08;;;;;;;0.80;0.80;;;;;;;;;;4974434;28;20188;-84
2021/07/31 08:22:36;;;;;;;1.30;1.20;;;;;;;;;;4975925;28;20199;-84
2021/07/31 08:25:04;;;;;;;0.90;0.90;;;;;;;;;;4992512;28;20239;-84
2021/07/31 08:27:32;;;;;;;1.42;1.33;;;;;;;;;;4993327;28;20661;-85
2021/07/31 08:30:01;;;;;;;0.90;0.90;;;;;;;;;;4991735;28;20230;-84
2021/07/31 08:32:31;;;;;;;0.70;0.70;;;;;;;;;;4973681;28;20196;-84
2021/07/31 08:34:59;;;;;;;1.13;0.98;;;;;;;;;;4973848;28;20222;-84
2021/07/31 08:37:27;;;;;;;0.80;0.80;;;;;;;;;;4973515;28;20212;-84
2021/07/31 08:39:55;;;;;;;2.15;1.13;;;;;;;;;;4973869;28;20215;-84
2021/07/31 08:42:22;;;;;;;6.53;6.03;;;;;;;;;;4974416;28;20193;-84
2021/07/31 08:44:51;;;;;;;4.15;3.75;;;;;;;;;;4973565;28;20243;-84
2021/07/31 08:47:19;;;;;;;1.90;1.55;;;;;;;;;;4973612;28;20203;-84
2021/07/31 08:49:47;;;;;;;2.08;1.50;;;;;;;;;;4973150;28;20210;-85
2021/07/31 08:52:16;;;;;;;1.27;1.15;;;;;;;;;;4972172;28;20347;-84
2021/07/31 08:54:47;;;;;;;0.73;0.73;;;;;;;;;;4973717;28;20279;-85
2021/07/31 08:57:15;;;;;;;1.00;1.00;;;;;;;;;;4973584;28;20181;-86
2021/07/31 08:59:44;;;;;;;1.05;0.80;;;;;;;;;;4973777;28;20188;-85
2021/07/31 09:02:13;;;;;;;1.30;0.90;;;;;;;;;;4973127;28;20292;-84
2021/07/31 09:04:44;;;;;;;1.02;1.02;;;;;;;;;;4991984;28;20283;-83
2021/07/31 09:07:16;;;;;;;0.88;0.88;;;;;;;;;;4993712;28;20195;-84
2021/07/31 09:09:45;;;;;;;1.30;1.20;;;;;;;;;;4994012;28;20203;-84
2021/07/31 09:12:13;;;;;;;0.80;0.80;;;;;;;;;;4992364;28;20242;-83
2021/07/31 09:14:48;;;;;;;0.90;0.90;;;;;;;;;;4973987;28;20228;-84
2021/07/31 09:17:25;;;;;;;1.60;1.50;;;;;;;;;;4973823;28;20192;-84
2021/07/31 09:19:53;;;;;;;0.88;0.88;;;;;;;;;;4974032;28;20290;-84
2021/07/31 09:22:22;;;;;;;0.80;0.80;;;;;;;;;;4973529;28;20211;-84
2021/07/31 09:25:13;;;;;;;0.82;0.80;;;;;;;;;;4973706;28;20227;-84
2021/07/31 09:27:40;;;;;;;1.25;0.95;;;;;;;;;;4974214;28;20280;-84
2021/07/31 09:30:09;;;;;;;1.52;1.42;;;;;;;;;;4972393;28;20196;-84
2021/07/31 09:32:42;;;;;;;2.33;1.00;;;;;;;;;;4975629;28;20181;-84
2021/07/31 09:35:23;;;;;;;0.80;0.80;;;;;;;;;;4992095;28;20282;-83
2021/07/31 09:37:55;;;;;;;1.60;0.80;;;;;;;;;;4992759;28;20238;-84
2021/07/31 09:40:33;;;;;;;0.93;0.70;;;;;;;;;;4992635;28;20230;-84
2021/07/31 09:43:17;;;;;;;0.93;0.82;;;;;;;;;;4976357;28;20224;-83
2021/07/31 09:45:44;;;;;;;0.90;0.90;;;;;;;;;;4971602;28;20224;-84
2021/07/31 09:48:13;;;;;;;0.80;0.80;;;;;;;;;;4977008;28;20181;-84
2021/07/31 09:50:42;;;;;;;1.75;0.90;;;;;;;;;;4976813;28;20192;-84
2021/07/31 09:53:12;;;;;;;1.25;0.80;;;;;;;;;;4983333;28;20192;-84
2021/07/31 09:55:46;;;;;;;0.80;0.80;;;;;;;;;;4997035;28;20195;-85
2021/07/31 09:58:16;;;;;;;1.10;1.00;;;;;;;;;;4996808;28;20207;-84
2021/07/31 10:00:45;;;;;;;1.10;1.00;;;;;;;;;;4981335;28;20201;-85
2021/07/31 10:03:13;;;;;;;0.90;0.90;;;;;;;;;;4977071;28;20698;-83
2021/07/31 10:05:42;;;;;;;1.23;0.80;;;;;;;;;;4977497;28;20236;-84
2021/07/31 10:08:13;;;;;;;1.05;1.05;;;;;;;;;;4976531;28;20192;-84
2021/07/31 10:10:41;;;;;;;1.33;0.77;;;;;;;;;;4976084;28;20199;-85
2021/07/31 10:13:09;;;;;;;1.17;0.90;;;;;;;;;;4975870;28;20196;-84
2021/07/31 10:15:36;;;;;;;0.80;0.80;;;;;;;;;;4976094;28;20243;-84
2021/07/31 10:18:11;;;;;;;0.93;0.90;;;;;;;;;;4975783;28;20184;-85
2021/07/31 10:20:40;;;;;;;0.68;0.68;;;;;;;;;;4975986;28;20635;-86
2021/07/31 10:23:08;;;;;;;1.00;1.00;;;;;;;;;;4975622;28;20566;-83
2021/07/31 10:25:37;;;;;;;1.10;1.10;;;;;;;;;;4975639;28;20228;-85
2021/07/31 10:28:28;;;;;;;0.63;0.63;;;;;;;;;;4975709;28;20592;-84
2021/07/31 10:30:55;;;;;;;1.13;0.88;;;;;;;;;;4975875;28;20204;-85
2021/07/31 10:33:44;;;;;;;0.70;0.70;;;;;;;;;;4975071;28;20196;-85
2021/07/31 10:36:30;;;;;;;0.80;0.80;;;;;;;;;;4975671;28;20622;-85
2021/07/31 10:38:57;;;;;;;0.90;0.90;;;;;;;;;;4975659;28;20211;-85
2021/07/31 10:41:57;;;;;;;0.90;0.90;;;;;;;;;;4975317;28;20184;-84
2021/07/31 10:44:25;;;;;;;0.80;0.80;;;;;;;;;;4953465;28;20699;-85
2021/07/31 10:47:39;;;;;;;0.90;0.90;;;;;;;;;;4958360;28;20209;-85
2021/07/31 10:50:37;;;;;;;0.60;0.60;;;;;;;;;;4975470;28;20204;-85
2021/07/31 10:53:06;;;;;;;0.60;0.60;;;;;;;;;;4974830;28;20671;-85
2021/07/31 10:56:04;;;;;;;0.55;0.55;;;;;;;;;;4975152;28;20220;-85
2021/07/31 10:58:33;;;;;;;0.75;0.75;;;;;;;;;;4973333;28;20259;-84
2021/07/31 11:01:22;;;;;;;0.90;0.90;;;;;;;;;;4975311;28;20185;-84
2021/07/31 11:03:49;;;;;;;0.65;0.65;;;;;;;;;;4978680;28;20767;-85
2021/07/31 11:06:17;;;;;;;1.17;1.13;;;;;;;;;;4976946;28;20231;-85
2021/07/31 11:09:14;;;;;;;0.90;0.90;;;;;;;;;;4975207;28;20184;-83
2021/07/31 11:11:43;;;;;;;1.30;1.00;;;;;;;;;;4975061;28;20181;-84
2021/07/31 11:14:12;;;;;;;1.30;0.98;;;;;;;;;;4989360;28;20277;-85
2021/07/31 11:16:41;;;;;;;0.73;0.73;;;;;;;;;;4994648;28;20552;-83
2021/07/31 11:19:08;;;;;;;1.13;0.90;;;;;;;;;;4994065;28;20200;-84
2021/07/31 11:21:38;;;;;;;1.25;0.95;;;;;;;;;;4993962;28;20212;-85
2021/07/31 11:24:08;;;;;;;0.80;0.80;;;;;;;;;;4980246;28;20656;-85
2021/07/31 11:26:45;;;;;;;1.17;1.08;;;;;;;;;;4974629;28;20674;-85
2021/07/31 11:29:20;;;;;;;0.90;0.90;;;;;;;;;;4974622;28;20215;-84
2021/07/31 11:31:59;;;;;;;0.73;0.73;;;;;;;;;;4974768;28;20210;-84
2021/07/31 11:34:27;;;;;;;1.00;0.82;;;;;;;;;;4974484;28;20223;-84
2021/07/31 11:36:59;;;;;;;0.70;0.70;;;;;;;;;;4974703;28;20184;-85
2021/07/31 11:39:27;;;;;;;0.60;0.60;;;;;;;;;;4974639;28;20235;-85
2021/07/31 11:41:57;;;;;;;0.70;0.70;;;;;;;;;;4974305;28;20208;-84
2021/07/31 11:44:28;;;;;;;0.90;0.90;;;;;;;;;;4974292;28;20230;-85
2021/07/31 11:46:57;;;;;;;0.60;0.60;;;;;;;;;;4974044;28;20216;-85
2021/07/31 11:49:27;;;;;;;0.90;0.90;;;;;;;;;;4974350;28;20200;-85
2021/07/31 11:51:56;;;;;;;1.27;1.20;;;;;;;;;;4974393;28;20201;-85
2021/07/31 11:54:25;;;;;;;1.10;1.00;;;;;;;;;;4990170;28;20220;-86
2021/07/31 11:56:53;;;;;;;0.80;0.80;;;;;;;;;;4993604;28;20184;-84
2021/07/31 11:59:27;;;;;;;0.93;0.70;;;;;;;;;;4993343;28;20207;-84
2021/07/31 12:01:57;;;;;;;0.90;0.90;;;;;;;;;;4993485;28;20611;-85
2021/07/31 12:04:46;;;;;;;1.05;1.00;;;;;;;;;;4976628;28;20236;-84
2021/07/31 12:07:14;;;;;;;1.10;1.10;;;;;;;;;;4973939;28;20794;-85
2021/07/31 12:09:42;;;;;;;0.90;0.90;;;;;;;;;;4973692;28;20189;-86
2021/07/31 12:12:26;;;;;;;1.20;1.10;;;;;;;;;;4974075;28;20207;-84
2021/07/31 12:15:19;;;;;;;0.80;0.80;;;;;;;;;;4957571;28;20220;-85
2021/07/31 12:18:05;;;;;;;0.85;0.80;;;;;;;;;;4969416;28;20259;-84
2021/07/31 12:20:34;;;;;;;0.90;0.90;;;;;;;;;;4973792;28;20180;-85
2021/07/31 12:23:03;;;;;;;1.35;1.00;;;;;;;;;;4974125;28;20196;-85
2021/07/31 12:25:31;;;;;;;1.13;1.10;;;;;;;;;;4973999;28;20229;-85
2021/07/31 12:28:01;;;;;;;1.50;1.38;;;;;;;;;;4973754;28;20604;-85
2021/07/31 12:30:33;;;;;;;1.27;1.17;;;;;;;;;;4973592;28;20204;-84
2021/07/31 12:33:02;;;;;;;2.80;2.13;;;;;;;;;;4972995;28;20193;-85
2021/07/31 12:35:43;;;;;;;1.13;1.10;;;;;;;;;;4973474;28;20227;-84
2021/07/31 12:38:14;;;;;;;0.88;0.88;;;;;;;;;;4973672;28;20223;-84
2021/07/31 12:40:42;;;;;;;0.80;0.80;;;;;;;;;;4973531;28;20188;-83
2021/07/31 12:43:11;;;;;;;1.02;1.00;;;;;;;;;;4973430;28;20212;-85
2021/07/31 12:45:43;;;;;;;1.08;0.93;;;;;;;;;;4973324;28;20658;-84
2021/07/31 12:48:10;;;;;;;0.77;0.77;;;;;;;;;;4973717;28;20295;-83
2021/07/31 12:50:39;;;;;;;1.27;0.90;;;;;;;;;;4973611;28;20189;-83
2021/07/31 12:53:07;;;;;;;0.80;0.80;;;;;;;;;;4974271;28;20204;-83
2021/07/31 12:55:35;;;;;;;1.00;0.90;;;;;;;;;;4973474;28;20224;-81
2021/07/31 12:58:03;;;;;;;1.15;1.15;;;;;;;;;;4972960;28;20204;-81
2021/07/31 13:00:30;;;;;;;0.80;0.80;;;;;;;;;;4973461;28;20945;-84
2021/07/31 13:03:00;;;;;;;0.77;0.77;;;;;;;;;;4973541;28;20201;-84
2021/07/31 13:05:28;;;;;;;1.20;1.00;;;;;;;;;;4972986;28;20287;-81
2021/07/31 13:07:59;;;;;;;0.90;0.90;;;;;;;;;;4972234;28;20224;-83
2021/07/31 13:10:27;;;;;;;0.90;0.90;;;;;;;;;;4973458;28;20587;-83
2021/07/31 13:12:56;;;;;;;1.55;1.45;;;;;;;;;;4972627;28;20192;-81
2021/07/31 13:15:24;;;;;;;1.00;1.00;;;;;;;;;;4973034;28;20228;-82
2021/07/31 13:17:51;;;;;;;1.23;1.13;;;;;;;;;;4973212;28;20698;-81
2021/07/31 13:20:20;;;;;;;2.35;1.15;;;;;;;;;;4973349;28;20240;-83
2021/07/31 13:22:48;;;;;;;1.58;1.00;;;;;;;;;;4973035;28;20216;-83
2021/07/31 13:25:15;;;;;;;0.82;0.82;;;;;;;;;;4957548;28;20224;-82
2021/07/31 13:27:43;;;;;;;0.85;0.85;;;;;;;;;;4957232;29;20237;-83
2021/07/31 13:30:11;;;;;;;0.82;0.82;;;;;;;;;;4958018;29;20201;-82
2021/07/31 13:32:38;;;;;;;2.58;1.08;;;;;;;;;;4959205;28;20236;-82
2021/07/31 13:35:07;;;;;;;0.93;0.90;;;;;;;;;;4977017;28;20231;-85
2021/07/31 13:37:39;;;;;;;1.75;1.65;;;;;;;;;;4977083;28;20196;-83
2021/07/31 13:40:16;;;;;;;0.90;0.90;;;;;;;;;;4977181;28;20624;-83
2021/07/31 13:42:44;;;;;;;0.80;0.80;;;;;;;;;;4976815;28;20659;-83
2021/07/31 13:45:13;;;;;;;1.52;1.13;;;;;;;;;;4977160;28;20224;-84
2021/07/31 13:47:41;;;;;;;0.82;0.82;;;;;;;;;;4976788;28;20262;-83
2021/07/31 13:50:12;;;;;;;1.10;1.10;;;;;;;;;;4976805;28;20643;-84
2021/07/31 13:52:41;;;;;;;1.10;1.10;;;;;;;;;;4976854;28;20196;-83
2021/07/31 13:55:10;;;;;;;1.30;1.20;;;;;;;;;;4976658;28;20217;-84
2021/07/31 13:57:40;;;;;;;1.40;1.30;;;;;;;;;;4976580;28;20205;-84
2021/07/31 14:00:09;;;;;;;0.80;0.80;;;;;;;;;;4976428;28;20259;-83
2021/07/31 14:02:37;;;;;;;1.33;1.23;;;;;;;;;;4976008;28;20200;-83
2021/07/31 14:05:06;;;;;;;1.10;1.10;;;;;;;;;;4975759;28;20232;-84
2021/07/31 14:07:34;;;;;;;2.67;1.40;;;;;;;;;;4975352;28;20938;-84
2021/07/31 14:10:03;;;;;;;1.45;1.35;;;;;;;;;;4977329;28;20219;-84
2021/07/31 14:12:31;;;;;;;1.10;1.10;;;;;;;;;;4975216;28;21010;-84
2021/07/31 14:14:59;;;;;;;1.55;1.45;;;;;;;;;;4956849;29;20221;-84
2021/07/31 14:17:26;;;;;;;1.20;1.20;;;;;;;;;;4956707;29;20186;-83
2021/07/31 14:19:54;;;;;;;1.13;1.10;;;;;;;;;;4956814;29;20562;-84
2021/07/31 14:22:21;;;;;;;2.47;1.27;;;;;;;;;;4961714;28;20197;-83
2021/07/31 14:24:49;;;;;;;1.15;1.15;;;;;;;;;;4976305;28;20228;-84
2021/07/31 14:27:17;;;;;;;1.20;1.10;;;;;;;;;;4976007;28;20185;-84
2021/07/31 14:29:45;;;;;;;1.10;1.10;;;;;;;;;;4975237;28;20704;-84
2021/07/31 14:32:12;;;;;;;5.53;1.63;;;;;;;;;;4975688;28;20582;-84
2021/07/31 14:34:40;;;;;;;2.13;1.20;;;;;;;;;;4975551;28;20583;-84
2021/07/31 14:37:07;;;;;;;1.13;1.02;;;;;;;;;;4975630;28;20276;-86
2021/07/31 14:39:36;;;;;;;1.00;0.90;;;;;;;;;;4976237;28;20207;-84
2021/07/31 14:42:04;;;;;;;1.08;1.00;;;;;;;;;;4975869;28;20224;-83
2021/07/31 14:44:33;;;;;;;1.23;1.00;;;;;;;;;;4974466;28;20706;-84
2021/07/31 14:47:00;;;;;;;1.00;1.00;;;;;;;;;;4975124;28;20667;-85
2021/07/31 14:49:27;;;;;;;1.13;1.10;;;;;;;;;;4975676;28;20208;-85
2021/07/31 14:51:55;;;;;;;1.00;1.00;;;;;;;;;;4974923;28;20216;-84
2021/07/31 14:54:22;;;;;;;1.13;1.10;;;;;;;;;;4974916;28;20227;-83
2021/07/31 14:56:50;;;;;;;1.23;1.13;;;;;;;;;;4975349;28;20545;-84